sensor_id;sensor_type;location;lat;lon;timestamp;pressure;altitude;pressure_sealevel;temperature;humidity
69855;BME280;57146;48.140;16.304;2023-03-14T00:02:23;97709.31;;;6.76;69.08
69855;BME280;57146;48.140;16.304;2023-03-14T00:04:54;97709.53;;;6.62;69.59
69855;BME280;57146;48.140;16.304;2023-03-14T00:07:24;97707.53;;;6.50;69.90
69855;BME280;57146;48.140;16.304;2023-03-14T00:09:51;97693.09;;;6.35;70.71
69855;BME280;57146;48.140;16.304;2023-03-14T00:12:18;97690.50;;;6.27;71.00
69855;BME280;57146;48.140;16.304;2023-03-14T00:14:48;97683.13;;;6.20;71.31
69855;BME280;57146;48.140;16.304;2023-03-14T00:17:15;97684.97;;;6.19;71.16
69855;BME280;57146;48.140;16.304;2023-03-14T00:19:42;97675.44;;;6.23;71.20
69855;BME280;57146;48.140;16.304;2023-03-14T00:22:09;97674.50;;;6.37;73.01
69855;BME280;57146;48.140;16.304;2023-03-14T00:25:01;97674.66;;;6.40;71.88
69855;BME280;57146;48.140;16.304;2023-03-14T00:27:55;97670.16;;;6.50;72.52
69855;BME280;57146;48.140;16.304;2023-03-14T00:30:23;97662.94;;;6.46;71.84
69855;BME280;57146;48.140;16.304;2023-03-14T00:32:52;97658.91;;;6.58;72.33
69855;BME280;57146;48.140;16.304;2023-03-14T00:35:18;97655.53;;;6.66;72.45
69855;BME280;57146;48.140;16.304;2023-03-14T00:37:45;97656.66;;;6.39;71.59
69855;BME280;57146;48.140;16.304;2023-03-14T00:40:12;97649.28;;;6.41;72.17
69855;BME280;57146;48.140;16.304;2023-03-14T00:42:39;97651.91;;;6.32;72.36
69855;BME280;57146;48.140;16.304;2023-03-14T00:45:07;97650.78;;;6.51;73.14
69855;BME280;57146;48.140;16.304;2023-03-14T00:47:35;97651.59;;;6.25;72.22
69855;BME280;57146;48.140;16.304;2023-03-14T00:50:02;97641.50;;;6.06;72.93
69855;BME280;57146;48.140;16.304;2023-03-14T00:52:29;97639.31;;;6.08;73.35
69855;BME280;57146;48.140;16.304;2023-03-14T00:54:59;97630.84;;;6.29;72.99
69855;BME280;57146;48.140;16.304;2023-03-14T00:57:27;97622.72;;;6.30;72.28
69855;BME280;57146;48.140;16.304;2023-03-14T00:59:54;97626.38;;;6.29;73.33
69855;BME280;57146;48.140;16.304;2023-03-14T01:02:21;97612.28;;;6.13;72.79
69855;BME280;57146;48.140;16.304;2023-03-14T01:04:49;97616.91;;;6.07;72.43
69855;BME280;57146;48.140;16.304;2023-03-14T01:07:18;97613.06;;;5.96;73.46
69855;BME280;57146;48.140;16.304;2023-03-14T01:09:45;97599.06;;;6.00;73.37
69855;BME280;57146;48.140;16.304;2023-03-14T01:12:11;97592.50;;;5.94;73.26
69855;BME280;57146;48.140;16.304;2023-03-14T01:14:41;97587.06;;;6.17;74.34
69855;BME280;57146;48.140;16.304;2023-03-14T01:17:08;97589.84;;;6.12;73.60
69855;BME280;57146;48.140;16.304;2023-03-14T01:19:35;97586.47;;;6.11;73.65
69855;BME280;57146;48.140;16.304;2023-03-14T01:22:27;97592.44;;;6.20;73.64
69855;BME280;57146;48.140;16.304;2023-03-14T01:24:56;97586.13;;;6.30;73.96
69855;BME280;57146;48.140;16.304;2023-03-14T01:27:23;97577.69;;;6.24;73.67
69855;BME280;57146;48.140;16.304;2023-03-14T01:29:50;97568.75;;;6.26;73.96
69855;BME280;57146;48.140;16.304;2023-03-14T01:32:17;97569.50;;;6.26;74.14
69855;BME280;57146;48.140;16.304;2023-03-14T01:34:44;97565.28;;;6.13;74.32
69855;BME280;57146;48.140;16.304;2023-03-14T01:37:11;97559.91;;;5.92;73.76
69855;BME280;57146;48.140;16.304;2023-03-14T01:39:39;97572.66;;;5.93;74.56
69855;BME280;57146;48.140;16.304;2023-03-14T01:42:06;97565.88;;;6.10;74.36
69855;BME280;57146;48.140;16.304;2023-03-14T01:44:54;97567.72;;;6.09;74.27
69855;BME280;57146;48.140;16.304;2023-03-14T01:47:25;97575.28;;;5.85;74.67
69855;BME280;57146;48.140;16.304;2023-03-14T01:52:32;97574.69;;;5.70;74.98
69855;BME280;57146;48.140;16.304;2023-03-14T01:55:04;97582.78;;;5.69;75.68
69855;BME280;57146;48.140;16.304;2023-03-14T01:57:43;97571.31;;;5.52;76.06
69855;BME280;57146;48.140;16.304;2023-03-14T02:00:14;97578.19;;;5.74;76.86
69855;BME280;57146;48.140;16.304;2023-03-14T02:02:53;97579.88;;;5.96;76.43
69855;BME280;57146;48.140;16.304;2023-03-14T02:05:28;97583.09;;;5.76;75.57
69855;BME280;57146;48.140;16.304;2023-03-14T02:08:13;97582.81;;;5.51;76.45
69855;BME280;57146;48.140;16.304;2023-03-14T02:10:48;97581.13;;;5.56;76.79
69855;BME280;57146;48.140;16.304;2023-03-14T02:13:21;97582.81;;;5.51;77.07
69855;BME280;57146;48.140;16.304;2023-03-14T02:16:12;97584.34;;;5.52;77.14
69855;BME280;57146;48.140;16.304;2023-03-14T02:18:58;97580.38;;;5.55;77.18
69855;BME280;57146;48.140;16.304;2023-03-14T02:21:47;97573.91;;;5.61;76.89
69855;BME280;57146;48.140;16.304;2023-03-14T02:27:20;97584.66;;;5.77;76.21
69855;BME280;57146;48.140;16.304;2023-03-14T02:29:52;97580.50;;;5.67;76.30
69855;BME280;57146;48.140;16.304;2023-03-14T02:32:22;97577.91;;;5.67;76.65
69855;BME280;57146;48.140;16.304;2023-03-14T02:34:55;97595.72;;;5.74;77.05
69855;BME280;57146;48.140;16.304;2023-03-14T02:37:29;97610.91;;;5.89;76.82
69855;BME280;57146;48.140;16.304;2023-03-14T02:39:59;97617.81;;;5.94;76.68
69855;BME280;57146;48.140;16.304;2023-03-14T02:42:27;97621.38;;;5.98;76.66
69855;BME280;57146;48.140;16.304;2023-03-14T02:47:49;97632.41;;;5.78;76.27
69855;BME280;57146;48.140;16.304;2023-03-14T02:50:22;97626.41;;;5.68;77.03
69855;BME280;57146;48.140;16.304;2023-03-14T02:52:53;97645.63;;;5.81;76.92
69855;BME280;57146;48.140;16.304;2023-03-14T02:55:21;97640.25;;;5.86;76.68
69855;BME280;57146;48.140;16.304;2023-03-14T02:57:51;97633.34;;;5.82;76.98
69855;BME280;57146;48.140;16.304;2023-03-14T03:00:18;97659.00;;;6.23;75.93
69855;BME280;57146;48.140;16.304;2023-03-14T03:02:46;97665.06;;;6.53;74.42
69855;BME280;57146;48.140;16.304;2023-03-14T03:05:14;97661.66;;;6.61;74.30
69855;BME280;57146;48.140;16.304;2023-03-14T03:07:41;97681.19;;;6.64;74.05
69855;BME280;57146;48.140;16.304;2023-03-14T03:10:09;97673.84;;;6.48;74.36
69855;BME280;57146;48.140;16.304;2023-03-14T03:12:36;97684.63;;;6.47;74.49
69855;BME280;57146;48.140;16.304;2023-03-14T03:15:05;97677.56;;;6.47;74.60
69855;BME280;57146;48.140;16.304;2023-03-14T03:17:35;97683.09;;;6.55;74.53
69855;BME280;57146;48.140;16.304;2023-03-14T03:20:02;97677.72;;;6.51;74.29
69855;BME280;57146;48.140;16.304;2023-03-14T03:22:30;97694.31;;;6.46;74.18
69855;BME280;57146;48.140;16.304;2023-03-14T03:24:57;97702.16;;;6.46;74.44
69855;BME280;57146;48.140;16.304;2023-03-14T03:27:24;97695.41;;;6.37;74.75
69855;BME280;57146;48.140;16.304;2023-03-14T03:29:52;97710.63;;;6.26;75.27
69855;BME280;57146;48.140;16.304;2023-03-14T03:32:25;97719.25;;;6.18;75.59
69855;BME280;57146;48.140;16.304;2023-03-14T03:34:52;97724.91;;;6.11;74.69
69855;BME280;57146;48.140;16.304;2023-03-14T03:37:19;97724.59;;;6.04;76.08
69855;BME280;57146;48.140;16.304;2023-03-14T03:39:46;97720.94;;;5.96;76.00
69855;BME280;57146;48.140;16.304;2023-03-14T03:42:14;97712.47;;;5.99;76.16
69855;BME280;57146;48.140;16.304;2023-03-14T03:44:42;97721.38;;;6.07;75.67
69855;BME280;57146;48.140;16.304;2023-03-14T03:47:10;97725.06;;;6.15;75.85
69855;BME280;57146;48.140;16.304;2023-03-14T03:49:37;97718.78;;;6.24;76.09
69855;BME280;57146;48.140;16.304;2023-03-14T03:52:04;97719.69;;;6.11;75.14
69855;BME280;57146;48.140;16.304;2023-03-14T03:54:31;97719.06;;;5.97;75.80
69855;BME280;57146;48.140;16.304;2023-03-14T03:56:59;97721.06;;;5.91;76.10
69855;BME280;57146;48.140;16.304;2023-03-14T03:59:26;97718.78;;;5.98;75.65
69855;BME280;57146;48.140;16.304;2023-03-14T04:01:53;97715.38;;;6.41;72.36
69855;BME280;57146;48.140;16.304;2023-03-14T04:04:23;97702.41;;;6.71;70.91
69855;BME280;57146;48.140;16.304;2023-03-14T04:06:52;97688.25;;;6.72;70.83
69855;BME280;57146;48.140;16.304;2023-03-14T04:09:19;97695.06;;;6.56;71.84
69855;BME280;57146;48.140;16.304;2023-03-14T04:11:58;97684.91;;;6.54;71.68
69855;BME280;57146;48.140;16.304;2023-03-14T04:14:46;97690.59;;;6.56;71.50
69855;BME280;57146;48.140;16.304;2023-03-14T04:17:20;97693.97;;;6.57;71.25
69855;BME280;57146;48.140;16.304;2023-03-14T04:19:49;97700.13;;;6.61;71.19
69855;BME280;57146;48.140;16.304;2023-03-14T04:22:19;97708.25;;;6.68;70.83
69855;BME280;57146;48.140;16.304;2023-03-14T04:24:49;97709.59;;;6.83;70.66
69855;BME280;57146;48.140;16.304;2023-03-14T04:27:18;97715.38;;;7.06;69.54
69855;BME280;57146;48.140;16.304;2023-03-14T04:29:46;97712.91;;;7.39;68.10
69855;BME280;57146;48.140;16.304;2023-03-14T04:32:17;97720.13;;;7.72;67.12
69855;BME280;57146;48.140;16.304;2023-03-14T04:34:48;97734.66;;;7.90;66.45
69855;BME280;57146;48.140;16.304;2023-03-14T04:37:15;97739.75;;;8.07;65.95
69855;BME280;57146;48.140;16.304;2023-03-14T04:39:44;97754.34;;;8.17;64.82
69855;BME280;57146;48.140;16.304;2023-03-14T04:42:16;97753.06;;;8.02;64.98
69855;BME280;57146;48.140;16.304;2023-03-14T04:44:43;97735.56;;;7.94;65.63
69855;BME280;57146;48.140;16.304;2023-03-14T04:47:11;97728.19;;;7.87;65.97
69855;BME280;57146;48.140;16.304;2023-03-14T04:49:40;97708.50;;;7.81;66.49
69855;BME280;57146;48.140;16.304;2023-03-14T04:52:10;97705.31;;;7.76;66.53
69855;BME280;57146;48.140;16.304;2023-03-14T04:54:37;97715.34;;;7.74;67.17
69855;BME280;57146;48.140;16.304;2023-03-14T04:57:06;97723.00;;;7.79;67.13
69855;BME280;57146;48.140;16.304;2023-03-14T04:59:36;97732.53;;;7.83;66.99
69855;BME280;57146;48.140;16.304;2023-03-14T05:02:14;97716.63;;;7.88;67.21
69855;BME280;57146;48.140;16.304;2023-03-14T05:04:54;97720.13;;;7.92;67.25
69855;BME280;57146;48.140;16.304;2023-03-14T05:07:34;97719.63;;;7.99;67.13
69855;BME280;57146;48.140;16.304;2023-03-14T05:10:28;97722.88;;;8.17;66.31
69855;BME280;57146;48.140;16.304;2023-03-14T05:13:14;97732.69;;;8.08;66.88
69855;BME280;57146;48.140;16.304;2023-03-14T05:16:09;97741.19;;;8.05;65.76
69855;BME280;57146;48.140;16.304;2023-03-14T05:18:55;97747.94;;;8.06;65.71
69855;BME280;57146;48.140;16.304;2023-03-14T05:21:38;97738.56;;;8.05;66.03
69855;BME280;57146;48.140;16.304;2023-03-14T05:24:24;97763.28;;;8.16;66.06
69855;BME280;57146;48.140;16.304;2023-03-14T05:26:53;97766.03;;;8.20;65.83
69855;BME280;57146;48.140;16.304;2023-03-14T05:29:35;97761.34;;;8.25;65.47
69855;BME280;57146;48.140;16.304;2023-03-14T05:32:47;97779.59;;;8.01;66.66
69855;BME280;57146;48.140;16.304;2023-03-14T05:35:36;97780.47;;;7.84;67.39
69855;BME280;57146;48.140;16.304;2023-03-14T05:38:23;97769.13;;;7.71;67.67
69855;BME280;57146;48.140;16.304;2023-03-14T05:41:02;97775.50;;;7.61;67.35
69855;BME280;57146;48.140;16.304;2023-03-14T05:44:01;97788.13;;;7.59;67.35
69855;BME280;57146;48.140;16.304;2023-03-14T05:47:04;97783.38;;;7.53;68.15
69855;BME280;57146;48.140;16.304;2023-03-14T05:49:45;97788.34;;;7.46;68.19
69855;BME280;57146;48.140;16.304;2023-03-14T05:52:32;97809.63;;;7.44;68.17
69855;BME280;57146;48.140;16.304;2023-03-14T05:55:22;97823.47;;;7.44;68.16
69855;BME280;57146;48.140;16.304;2023-03-14T05:58:07;97816.72;;;7.35;69.02
69855;BME280;57146;48.140;16.304;2023-03-14T06:01:02;97810.38;;;7.44;68.57
69855;BME280;57146;48.140;16.304;2023-03-14T06:03:42;97820.72;;;7.41;68.56
69855;BME280;57146;48.140;16.304;2023-03-14T06:06:10;97806.88;;;7.32;69.74
69855;BME280;57146;48.140;16.304;2023-03-14T06:08:38;97811.50;;;7.35;69.15
69855;BME280;57146;48.140;16.304;2023-03-14T06:11:08;97827.38;;;7.30;69.94
69855;BME280;57146;48.140;16.304;2023-03-14T06:13:35;97817.53;;;7.27;69.78
69855;BME280;57146;48.140;16.304;2023-03-14T06:16:02;97809.22;;;7.25;69.77
69855;BME280;57146;48.140;16.304;2023-03-14T06:18:30;97826.75;;;7.24;69.63
69855;BME280;57146;48.140;16.304;2023-03-14T06:20:57;97823.66;;;7.31;69.57
69855;BME280;57146;48.140;16.304;2023-03-14T06:23:26;97817.97;;;7.29;69.45
69855;BME280;57146;48.140;16.304;2023-03-14T06:25:56;97812.59;;;7.25;69.64
69855;BME280;57146;48.140;16.304;2023-03-14T06:28:25;97827.84;;;7.23;69.28
69855;BME280;57146;48.140;16.304;2023-03-14T06:30:56;97818.44;;;7.22;69.21
69855;BME280;57146;48.140;16.304;2023-03-14T06:33:24;97819.53;;;7.21;69.43
69855;BME280;57146;48.140;16.304;2023-03-14T06:35:51;97811.81;;;7.25;69.89
69855;BME280;57146;48.140;16.304;2023-03-14T06:38:21;97820.28;;;7.30;69.65
69855;BME280;57146;48.140;16.304;2023-03-14T06:40:53;97808.25;;;7.29;70.08
69855;BME280;57146;48.140;16.304;2023-03-14T06:43:47;97797.03;;;7.29;70.47
69855;BME280;57146;48.140;16.304;2023-03-14T06:46:15;97798.59;;;7.30;70.17
69855;BME280;57146;48.140;16.304;2023-03-14T06:48:42;97801.03;;;7.35;70.23
69855;BME280;57146;48.140;16.304;2023-03-14T06:51:13;97817.78;;;7.42;70.09
69855;BME280;57146;48.140;16.304;2023-03-14T06:53:41;97806.81;;;7.49;70.39
69855;BME280;57146;48.140;16.304;2023-03-14T06:56:08;97810.19;;;7.58;70.07
69855;BME280;57146;48.140;16.304;2023-03-14T06:58:41;97808.00;;;7.60;69.16
69855;BME280;57146;48.140;16.304;2023-03-14T07:01:30;97806.28;;;7.64;69.21
69855;BME280;57146;48.140;16.304;2023-03-14T07:04:04;97800.56;;;7.71;69.21
69855;BME280;57146;48.140;16.304;2023-03-14T07:06:33;97809.16;;;7.80;68.36
69855;BME280;57146;48.140;16.304;2023-03-14T07:09:25;97824.53;;;7.82;68.17
69855;BME280;57146;48.140;16.304;2023-03-14T07:11:57;97822.38;;;7.84;68.13
69855;BME280;57146;48.140;16.304;2023-03-14T07:14:27;97832.22;;;7.87;68.47
69855;BME280;57146;48.140;16.304;2023-03-14T07:16:54;97836.06;;;7.89;68.71
69855;BME280;57146;48.140;16.304;2023-03-14T07:19:21;97840.22;;;7.90;68.79
69855;BME280;57146;48.140;16.304;2023-03-14T07:21:48;97827.56;;;7.92;68.95
69855;BME280;57146;48.140;16.304;2023-03-14T07:24:23;97824.84;;;8.10;68.77
69855;BME280;57146;48.140;16.304;2023-03-14T07:26:50;97831.13;;;8.18;68.50
69855;BME280;57146;48.140;16.304;2023-03-14T07:29:17;97829.09;;;8.23;68.42
69855;BME280;57146;48.140;16.304;2023-03-14T07:31:44;97821.34;;;8.27;68.20
69855;BME280;57146;48.140;16.304;2023-03-14T07:34:15;97820.22;;;8.36;68.10
69855;BME280;57146;48.140;16.304;2023-03-14T07:36:44;97817.88;;;8.44;68.16
69855;BME280;57146;48.140;16.304;2023-03-14T07:39:11;97820.63;;;8.47;69.07
69855;BME280;57146;48.140;16.304;2023-03-14T07:42:14;97825.09;;;8.47;70.91
69855;BME280;57146;48.140;16.304;2023-03-14T07:44:54;97812.91;;;8.63;71.26
69855;BME280;57146;48.140;16.304;2023-03-14T07:47:21;97815.78;;;8.70;72.25
69855;BME280;57146;48.140;16.304;2023-03-14T07:49:48;97816.03;;;8.77;72.66
69855;BME280;57146;48.140;16.304;2023-03-14T07:52:15;97819.78;;;8.88;73.18
69855;BME280;57146;48.140;16.304;2023-03-14T07:54:42;97810.19;;;9.38;72.79
69855;BME280;57146;48.140;16.304;2023-03-14T07:57:09;97812.50;;;9.52;72.46
69855;BME280;57146;48.140;16.304;2023-03-14T07:59:35;97809.44;;;9.62;72.44
69855;BME280;57146;48.140;16.304;2023-03-14T08:02:03;97809.53;;;9.78;70.60
69855;BME280;57146;48.140;16.304;2023-03-14T08:04:30;97806.34;;;9.84;70.50
69855;BME280;57146;48.140;16.304;2023-03-14T08:06:57;97803.97;;;9.79;70.89
69855;BME280;57146;48.140;16.304;2023-03-14T08:09:25;97789.28;;;9.78;70.53
69855;BME280;57146;48.140;16.304;2023-03-14T08:11:51;97790.25;;;9.74;71.29
69855;BME280;57146;48.140;16.304;2023-03-14T08:14:18;97788.09;;;9.76;71.56
69855;BME280;57146;48.140;16.304;2023-03-14T08:16:51;97785.78;;;9.87;72.20
69855;BME280;57146;48.140;16.304;2023-03-14T08:19:18;97787.75;;;9.90;72.34
69855;BME280;57146;48.140;16.304;2023-03-14T08:21:45;97792.75;;;9.95;72.00
69855;BME280;57146;48.140;16.304;2023-03-14T08:24:12;97801.97;;;10.01;71.18
69855;BME280;57146;48.140;16.304;2023-03-14T08:26:39;97797.56;;;10.05;70.93
69855;BME280;57146;48.140;16.304;2023-03-14T08:29:06;97798.66;;;10.16;69.36
69855;BME280;57146;48.140;16.304;2023-03-14T08:31:34;97793.72;;;10.15;69.76
69855;BME280;57146;48.140;16.304;2023-03-14T08:34:06;97794.25;;;10.20;69.15
69855;BME280;57146;48.140;16.304;2023-03-14T08:36:33;97798.31;;;10.30;68.57
69855;BME280;57146;48.140;16.304;2023-03-14T08:39:01;97808.38;;;10.40;68.44
69855;BME280;57146;48.140;16.304;2023-03-14T08:41:28;97806.41;;;10.37;68.81
69855;BME280;57146;48.140;16.304;2023-03-14T08:43:55;97797.69;;;10.61;67.66
69855;BME280;57146;48.140;16.304;2023-03-14T08:46:22;97785.47;;;10.69;67.21
69855;BME280;57146;48.140;16.304;2023-03-14T08:48:49;97789.69;;;10.58;68.05
69855;BME280;57146;48.140;16.304;2023-03-14T08:51:16;97798.06;;;10.47;69.29
69855;BME280;57146;48.140;16.304;2023-03-14T08:53:43;97793.34;;;10.41;69.07
69855;BME280;57146;48.140;16.304;2023-03-14T08:56:10;97795.03;;;10.33;69.53
69855;BME280;57146;48.140;16.304;2023-03-14T08:58:37;97797.56;;;10.29;70.15
69855;BME280;57146;48.140;16.304;2023-03-14T09:01:09;97794.47;;;10.27;70.38
69855;BME280;57146;48.140;16.304;2023-03-14T09:03:36;97789.09;;;10.24;70.04
69855;BME280;57146;48.140;16.304;2023-03-14T09:06:07;97792.72;;;10.31;68.87
69855;BME280;57146;48.140;16.304;2023-03-14T09:08:34;97778.91;;;10.35;68.77
69855;BME280;57146;48.140;16.304;2023-03-14T09:11:09;97780.88;;;10.38;68.57
69855;BME280;57146;48.140;16.304;2023-03-14T09:13:36;97770.88;;;10.43;68.82
69855;BME280;57146;48.140;16.304;2023-03-14T09:16:05;97781.16;;;10.48;67.81
69855;BME280;57146;48.140;16.304;2023-03-14T09:18:37;97781.03;;;10.57;67.33
69855;BME280;57146;48.140;16.304;2023-03-14T09:21:04;97793.16;;;10.62;67.07
69855;BME280;57146;48.140;16.304;2023-03-14T09:23:31;97795.72;;;10.58;67.72
69855;BME280;57146;48.140;16.304;2023-03-14T09:25:59;97787.38;;;10.56;68.15
69855;BME280;57146;48.140;16.304;2023-03-14T09:28:26;97796.72;;;10.53;68.40
69855;BME280;57146;48.140;16.304;2023-03-14T09:30:53;97792.13;;;10.50;68.80
69855;BME280;57146;48.140;16.304;2023-03-14T09:33:22;97789.03;;;10.48;68.81
69855;BME280;57146;48.140;16.304;2023-03-14T09:35:52;97795.75;;;10.46;69.17
69855;BME280;57146;48.140;16.304;2023-03-14T09:38:19;97802.97;;;10.49;68.70
69855;BME280;57146;48.140;16.304;2023-03-14T09:40:46;97790.59;;;10.49;68.40
69855;BME280;57146;48.140;16.304;2023-03-14T09:43:14;97796.63;;;10.50;68.75
69855;BME280;57146;48.140;16.304;2023-03-14T09:45:42;97797.56;;;10.58;68.25
69855;BME280;57146;48.140;16.304;2023-03-14T09:48:21;97788.25;;;10.60;68.76
69855;BME280;57146;48.140;16.304;2023-03-14T09:50:53;97786.00;;;10.74;67.99
69855;BME280;57146;48.140;16.304;2023-03-14T09:53:25;97784.72;;;10.68;68.04
69855;BME280;57146;48.140;16.304;2023-03-14T09:55:57;97793.28;;;10.65;68.66
69855;BME280;57146;48.140;16.304;2023-03-14T09:58:24;97797.88;;;10.68;68.09
69855;BME280;57146;48.140;16.304;2023-03-14T10:00:55;97789.53;;;10.66;68.19
69855;BME280;57146;48.140;16.304;2023-03-14T10:03:34;97786.56;;;10.68;67.91
69855;BME280;57146;48.140;16.304;2023-03-14T10:06:02;97785.38;;;10.65;68.02
69855;BME280;57146;48.140;16.304;2023-03-14T10:08:30;97801.06;;;10.62;68.28
69855;BME280;57146;48.140;16.304;2023-03-14T10:10:57;97792.91;;;10.67;67.47
69855;BME280;57146;48.140;16.304;2023-03-14T10:13:26;97788.34;;;10.64;67.72
69855;BME280;57146;48.140;16.304;2023-03-14T10:15:59;97786.47;;;10.64;68.26
69855;BME280;57146;48.140;16.304;2023-03-14T10:18:31;97790.28;;;10.67;68.16
69855;BME280;57146;48.140;16.304;2023-03-14T10:21:29;97802.94;;;10.89;67.32
69855;BME280;57146;48.140;16.304;2023-03-14T10:24:27;97802.19;;;11.20;65.53
69855;BME280;57146;48.140;16.304;2023-03-14T10:26:59;97795.75;;;11.49;64.12
69855;BME280;57146;48.140;16.304;2023-03-14T10:29:55;97801.84;;;11.69;63.08
69855;BME280;57146;48.140;16.304;2023-03-14T10:32:37;97797.75;;;11.88;62.04
69855;BME280;57146;48.140;16.304;2023-03-14T10:35:08;97805.81;;;12.11;61.26
69855;BME280;57146;48.140;16.304;2023-03-14T10:37:35;97795.13;;;12.23;60.53
69855;BME280;57146;48.140;16.304;2023-03-14T10:40:05;97794.09;;;12.28;60.69
69855;BME280;57146;48.140;16.304;2023-03-14T10:42:58;97803.47;;;12.25;61.54
69855;BME280;57146;48.140;16.304;2023-03-14T10:45:36;97798.38;;;12.16;62.56
69855;BME280;57146;48.140;16.304;2023-03-14T10:48:30;97793.72;;;12.10;63.61
69855;BME280;57146;48.140;16.304;2023-03-14T10:53:45;97800.66;;;11.83;65.72
69855;BME280;57146;48.140;16.304;2023-03-14T10:56:14;97795.06;;;11.68;66.07
69855;BME280;57146;48.140;16.304;2023-03-14T10:58:44;97788.41;;;11.59;65.72
69855;BME280;57146;48.140;16.304;2023-03-14T11:09:42;97799.22;;;11.38;62.54
69855;BME280;57146;48.140;16.304;2023-03-14T11:20:57;97790.75;;;11.29;62.21
69855;BME280;57146;48.140;16.304;2023-03-14T11:27:10;97808.66;;;11.23;61.35
69855;BME280;57146;48.140;16.304;2023-03-14T11:38:30;97781.38;;;11.15;60.95
69855;BME280;57146;48.140;16.304;2023-03-14T11:40:59;97796.75;;;11.13;60.33
69855;BME280;57146;48.140;16.304;2023-03-14T11:43:38;97808.75;;;11.11;61.00
69855;BME280;57146;48.140;16.304;2023-03-14T11:48:56;97806.78;;;11.08;60.93
69855;BME280;57146;48.140;16.304;2023-03-14T11:51:36;97821.72;;;11.03;60.31
69855;BME280;57146;48.140;16.304;2023-03-14T11:56:58;97799.28;;;10.94;60.78
69855;BME280;57146;48.140;16.304;2023-03-14T12:13:50;97792.78;;;10.75;61.24
69855;BME280;57146;48.140;16.304;2023-03-14T12:18:51;97803.63;;;10.74;61.36
69855;BME280;57146;48.140;16.304;2023-03-14T12:21:19;97794.22;;;10.73;61.41
69855;BME280;57146;48.140;16.304;2023-03-14T12:26:20;97779.44;;;10.68;61.54
69855;BME280;57146;48.140;16.304;2023-03-14T12:28:51;97788.44;;;10.67;61.92
69855;BME280;57146;48.140;16.304;2023-03-14T12:31:48;97791.31;;;10.62;62.04
69855;BME280;57146;48.140;16.304;2023-03-14T12:39:34;97782.91;;;10.57;62.02
69855;BME280;57146;48.140;16.304;2023-03-14T12:42:11;97788.06;;;10.53;61.89
69855;BME280;57146;48.140;16.304;2023-03-14T12:44:44;97774.47;;;10.51;61.77
69855;BME280;57146;48.140;16.304;2023-03-14T12:49:49;97764.81;;;10.55;61.57
69855;BME280;57146;48.140;16.304;2023-03-14T12:53:06;97759.22;;;10.57;61.49
69855;BME280;57146;48.140;16.304;2023-03-14T12:55:56;97759.22;;;10.57;61.49
69855;BME280;57146;48.140;16.304;2023-03-14T13:01:02;97766.22;;;10.52;61.38
69855;BME280;57146;48.140;16.304;2023-03-14T13:03:40;97767.03;;;10.53;61.19
69855;BME280;57146;48.140;16.304;2023-03-14T13:06:11;97771.50;;;10.52;61.35
69855;BME280;57146;48.140;16.304;2023-03-14T13:08:41;97776.00;;;10.52;61.70
69855;BME280;57146;48.140;16.304;2023-03-14T13:11:28;97770.41;;;10.53;61.26
69855;BME280;57146;48.140;16.304;2023-03-14T13:13:57;97771.06;;;10.50;61.89
69855;BME280;57146;48.140;16.304;2023-03-14T13:16:25;97774.81;;;10.49;62.08
69855;BME280;57146;48.140;16.304;2023-03-14T13:19:23;97781.91;;;10.49;62.09
69855;BME280;57146;48.140;16.304;2023-03-14T13:21:56;97782.72;;;10.49;61.90
69855;BME280;57146;48.140;16.304;2023-03-14T13:24:28;97784.22;;;10.50;62.22
69855;BME280;57146;48.140;16.304;2023-03-14T13:26:55;97780.84;;;10.50;62.10
69855;BME280;57146;48.140;16.304;2023-03-14T13:29:25;97783.47;;;10.50;62.28
69855;BME280;57146;48.140;16.304;2023-03-14T13:31:56;97791.38;;;10.50;62.24
69855;BME280;57146;48.140;16.304;2023-03-14T13:34:29;97776.66;;;10.49;62.17
69855;BME280;57146;48.140;16.304;2023-03-14T13:36:57;97776.34;;;10.50;62.33
69855;BME280;57146;48.140;16.304;2023-03-14T13:39:28;97779.28;;;10.49;62.12
69855;BME280;57146;48.140;16.304;2023-03-14T13:42:01;97782.25;;;10.47;62.45
69855;BME280;57146;48.140;16.304;2023-03-14T13:44:36;97784.91;;;10.47;62.51
69855;BME280;57146;48.140;16.304;2023-03-14T13:47:09;97782.25;;;10.47;62.38
69855;BME280;57146;48.140;16.304;2023-03-14T13:49:38;97778.88;;;10.47;62.51
69855;BME280;57146;48.140;16.304;2023-03-14T13:52:41;97778.53;;;10.48;62.42
69855;BME280;57146;48.140;16.304;2023-03-14T13:55:15;97776.66;;;10.49;62.12
69855;BME280;57146;48.140;16.304;2023-03-14T13:57:47;97787.97;;;10.49;62.15
69855;BME280;57146;48.140;16.304;2023-03-14T14:00:22;97791.25;;;10.46;62.75
69855;BME280;57146;48.140;16.304;2023-03-14T14:02:50;97788.63;;;10.46;62.46
69855;BME280;57146;48.140;16.304;2023-03-14T14:05:17;97788.28;;;10.48;62.59
69855;BME280;57146;48.140;16.304;2023-03-14T14:07:44;97795.75;;;10.46;63.20
69855;BME280;57146;48.140;16.304;2023-03-14T14:10:12;97795.75;;;10.46;63.23
69855;BME280;57146;48.140;16.304;2023-03-14T14:12:47;97791.59;;;10.45;62.91
69855;BME280;57146;48.140;16.304;2023-03-14T14:15:26;97796.19;;;10.48;63.19
69855;BME280;57146;48.140;16.304;2023-03-14T14:18:00;97803.84;;;10.53;62.61
69855;BME280;57146;48.140;16.304;2023-03-14T14:20:37;97788.47;;;10.55;62.29
69855;BME280;57146;48.140;16.304;2023-03-14T14:23:10;97790.00;;;10.56;61.65
69855;BME280;57146;48.140;16.304;2023-03-14T14:25:38;97780.28;;;10.57;61.43
69855;BME280;57146;48.140;16.304;2023-03-14T14:28:25;97793.53;;;10.60;61.27
69855;BME280;57146;48.140;16.304;2023-03-14T14:33:41;97793.38;;;10.69;60.71
69855;BME280;57146;48.140;16.304;2023-03-14T14:36:18;97795.47;;;10.63;62.07
69855;BME280;57146;48.140;16.304;2023-03-14T14:38:50;97799.19;;;10.62;61.19
69855;BME280;57146;48.140;16.304;2023-03-14T14:41:17;97796.38;;;10.55;62.57
69855;BME280;57146;48.140;16.304;2023-03-14T14:43:46;97797.81;;;10.52;62.78